Glen Mills, PA

5:01 PM EDT on August 27, 2014 (GMT -0400)
Cambridge Downs | Change Station
CLOSE
Current Station
Personal Weather Station
Location: Glen Mils, PA
Elevation: 338 ft
Nearby Weather Stations

Elev 338 ft 39.87 °N, 75.50 °W | Updated 1 second ago

Clear
Clear
89.1 °F
Feels Like 94 °F
N
2.2
Wind Variable Wind from SW

Today
High -- | Low -- °F
--% Chance of Precip.
Yesterday
High -- | Low -- °F
Precip. -- in
6:25 AM 7:41 PM
Waxing Crescent, 5% visible
Pressure 29.91 in
Visibility 10.0 miles
Clouds Clear
Heat Index 94 °F
Dew Point 70 °F
Humidity 53%
Rainfall 0.00 in
Snow Depth Not available.
UV 3 out of 12
Pollen 9.40 out of 12
Ozone Unhealthy
PM2.5 Moderate
Flu Activity Not available.
METAR KPHL 272054Z 21007KT 10SM CLR 32/18 A2991 RMK AO2 SLP129 T03170178 56021

More Conditions Fewer Conditions

Pressure 29.91 in
Visibility 10.0 miles
Clouds Clear
Heat Index 94 °F
Dew Point 70 °F
Humidity 53%
Rainfall 0.00 in
Snow Depth Not available.
UV 3 out of 12
Pollen 9.40 out of 12
Ozone Unhealthy
PM2.5 Moderate
Flu Activity Not available.
METAR KPHL 272054Z 21007KT 10SM CLR 32/18 A2991 RMK AO2 SLP129 T03170178 56021

More Conditions Fewer Conditions

10-Day Weather Forecast

Almanac

Astronomy

Aug. 27, 2014 Rise Set
Actual Time 6:25 AM EDT 7:41 PM EDT
Civil Twilight 5:57 AM EDT 8:09 PM EDT
Nautical Twilight 5:23 AM EDT 8:42 PM EDT
Astronomical Twilight 4:48 AM EDT 9:17 PM EDT
Moon 8:18 AM EDT 8:32 PM EDT
Length of Visible Light 14h 12m
Length of Day
13h 15m
Tomorrow will be 2m 29s shorter.
Waxing Crescent, 5% of the Moon is Illuminated
Today
Waxing Crescent
Sep 2
First Quarter
Sep 8
Full
Sep 15
Last Quarter
Sep 24
New

Today's Extremes

State Highs State Lows

Community

WunderPhotos

Upload Photos

1,747,785 photos uploaded!

Nearby

Air Quality

  Air Quality AQ Index Pollutant
Yesterday Moderate
OZONE
Yesterday Moderate
PM2.5
Current Unhealthy
OZONE
Current Moderate
PM2.5
Wednesday Unhealthy for Sensitive Groups
OZONE
Wednesday Moderate
PM2.5
Thursday Good
OZONE
Thursday Good
PM2.5
Friday Moderate
OZONE
Friday Good
PM2.5
Saturday Moderate
OZONE
Saturday Moderate
PM2.5

Snow Depth

Station Depth Elevation
No new snow has been reported.

Earthquake Activity

City Distance Mag. Time & Date
No recent earthquake activity has been reported nearby.
Minimum magnitude displayed is 2.5.

Coastal Water Temperatures

Place Temperature
Ship John Shoal, NJ 77.0 °F
Cape May, NJ 81.0 °F
Reedy Point, DE 79.0 °F
Delaware City, DE 79.0 °F
Marcus Hook, PA 78.1 °F

Nearby Weather Stations